createdAt,value
2019-03-23T00:01:53.949Z,88.50
2019-03-23T00:04:22.339Z,88.40
2019-03-23T00:06:50.714Z,88.00
2019-03-23T00:09:19.114Z,88.10
2019-03-23T00:11:47.500Z,88.30
2019-03-23T00:14:15.816Z,87.80
2019-03-23T00:16:44.183Z,87.60
2019-03-23T00:19:12.557Z,87.90
2019-03-23T00:21:40.951Z,88.30
2019-03-23T00:24:09.325Z,88.70
2019-03-23T00:26:37.648Z,89.10
2019-03-23T00:29:06.015Z,88.80
2019-03-23T00:31:34.405Z,88.90
2019-03-23T00:34:02.702Z,88.80
2019-03-23T00:36:40.809Z,89.40
2019-03-23T00:39:01.134Z,89.30
2019-03-23T00:41:29.529Z,89.40
2019-03-23T00:43:57.884Z,89.60
2019-03-23T00:46:26.195Z,90.00
2019-03-23T00:48:54.557Z,90.20
2019-03-23T00:51:23.015Z,90.40
2019-03-23T00:53:51.300Z,90.10
2019-03-23T00:56:19.628Z,90.20
2019-03-23T00:58:47.989Z,89.80
2019-03-23T01:01:16.780Z,90.20
2019-03-23T01:03:45.072Z,90.50
2019-03-23T01:06:13.463Z,90.50
2019-03-23T01:08:41.850Z,90.50
2019-03-23T01:11:10.242Z,90.70
2019-03-23T01:13:38.621Z,90.60
2019-03-23T01:16:07.012Z,90.60
2019-03-23T01:18:35.386Z,90.70
2019-03-23T01:21:03.776Z,90.80
2019-03-23T01:23:32.077Z,90.70
2019-03-23T01:26:00.503Z,90.60
2019-03-23T01:28:28.848Z,90.80
2019-03-23T01:30:57.157Z,91.00
2019-03-23T01:33:25.439Z,91.00
2019-03-23T01:35:53.748Z,90.90
2019-03-23T01:38:22.117Z,91.00
2019-03-23T01:40:50.422Z,91.20
2019-03-23T01:43:18.782Z,91.40
2019-03-23T01:45:47.087Z,91.30
2019-03-23T01:48:15.373Z,91.20
2019-03-23T01:50:43.665Z,91.30
2019-03-23T01:53:12.063Z,91.40
2019-03-23T01:55:40.361Z,91.60
2019-03-23T01:58:08.685Z,91.70
2019-03-23T02:00:37.057Z,92.00
2019-03-23T02:03:05.381Z,91.90
2019-03-23T02:05:33.673Z,91.80
2019-03-23T02:08:01.985Z,92.10
2019-03-23T02:10:30.414Z,92.40
2019-03-23T02:12:58.718Z,92.30
2019-03-23T02:15:27.009Z,92.10
2019-03-23T02:17:55.644Z,92.20
2019-03-23T02:20:24.003Z,92.30
2019-03-23T02:22:52.309Z,92.40
2019-03-23T02:25:20.680Z,92.40
2019-03-23T02:27:49.063Z,92.50
2019-03-23T02:30:17.348Z,92.50
2019-03-23T02:32:45.664Z,92.60
2019-03-23T02:35:13.970Z,92.60
2019-03-23T02:37:42.345Z,92.50
2019-03-23T02:40:10.789Z,92.30
2019-03-23T02:42:39.171Z,92.40
2019-03-23T02:45:11.510Z,92.50
2019-03-23T02:47:39.853Z,92.50
2019-03-23T02:50:09.454Z,92.50
2019-03-23T02:52:38.010Z,92.60
2019-03-23T02:55:09.741Z,92.70
2019-03-23T02:57:38.154Z,92.50
2019-03-23T03:00:09.581Z,92.70
2019-03-23T03:02:37.979Z,92.80
2019-03-23T03:05:07.994Z,92.70
2019-03-23T03:07:42.603Z,92.90
2019-03-23T03:10:08.371Z,93.00
2019-03-23T03:12:36.684Z,93.20
2019-03-23T03:15:06.189Z,93.30
2019-03-23T03:17:34.570Z,93.70
2019-03-23T03:20:04.811Z,93.20
2019-03-23T03:22:33.196Z,93.40
2019-03-23T03:25:01.554Z,93.50
2019-03-23T03:27:29.961Z,93.30
2019-03-23T03:29:58.317Z,93.30
2019-03-23T03:32:26.733Z,93.20
2019-03-23T03:34:55.108Z,93.20
2019-03-23T03:37:23.496Z,93.40
2019-03-23T03:39:51.864Z,93.40
2019-03-23T03:42:20.256Z,93.40
2019-03-23T03:44:48.998Z,93.40
2019-03-23T03:47:17.393Z,93.50
2019-03-23T03:49:45.773Z,93.40
2019-03-23T03:52:14.153Z,93.60
2019-03-23T03:54:42.456Z,93.60
2019-03-23T03:57:10.854Z,93.70
2019-03-23T03:59:39.224Z,93.40
2019-03-23T04:02:07.632Z,93.30
2019-03-23T04:04:35.919Z,93.20
2019-03-23T04:07:04.284Z,93.30
2019-03-23T04:09:32.600Z,93.50
2019-03-23T04:12:00.969Z,93.60
2019-03-23T04:14:29.357Z,93.50
2019-03-23T04:16:57.718Z,93.30
2019-03-23T04:19:26.042Z,93.50
2019-03-23T04:21:54.418Z,93.20
2019-03-23T04:24:22.806Z,93.40
2019-03-23T04:26:51.169Z,93.60
2019-03-23T04:29:19.487Z,93.80
2019-03-23T04:31:47.865Z,94.00
2019-03-23T04:34:16.259Z,94.10
2019-03-23T04:36:44.627Z,94.00
2019-03-23T04:39:13.010Z,94.00
2019-03-23T04:41:41.385Z,94.30
2019-03-23T04:44:09.773Z,94.10
2019-03-23T04:46:38.065Z,94.30
2019-03-23T04:49:06.391Z,94.30
2019-03-23T04:51:34.761Z,94.50
2019-03-23T04:54:03.151Z,94.50
2019-03-23T04:56:31.513Z,94.50
2019-03-23T04:58:59.905Z,94.80
2019-03-23T05:01:28.291Z,94.50
2019-03-23T05:03:56.682Z,94.60
2019-03-23T05:06:25.058Z,94.50
2019-03-23T05:08:53.383Z,94.70
2019-03-23T05:11:21.750Z,94.60
2019-03-23T05:13:50.159Z,94.40
2019-03-23T05:16:18.539Z,94.30
2019-03-23T05:18:46.938Z,94.40
2019-03-23T05:21:15.318Z,94.40
2019-03-23T05:23:45.767Z,94.40
2019-03-23T05:26:14.750Z,94.20
2019-03-23T05:28:43.136Z,94.20
2019-03-23T05:31:11.437Z,94.20
2019-03-23T05:33:39.840Z,94.50
2019-03-23T05:36:08.210Z,94.30
2019-03-23T05:38:44.344Z,94.10
2019-03-23T05:41:06.617Z,94.00
2019-03-23T05:43:35.009Z,93.90
2019-03-23T05:46:03.306Z,93.60
2019-03-23T05:48:31.705Z,93.30
2019-03-23T05:51:00.078Z,93.00
2019-03-23T05:53:28.473Z,92.80
2019-03-23T05:55:56.837Z,92.70
2019-03-23T05:58:25.157Z,91.30
2019-03-23T06:00:53.530Z,80.40
2019-03-23T06:03:21.925Z,72.80
2019-03-23T06:05:50.222Z,78.50
2019-03-23T06:08:18.557Z,59.80
2019-03-23T06:10:46.925Z,52.90
2019-03-23T06:13:15.242Z,49.30
2019-03-23T06:15:43.652Z,50.40
2019-03-23T06:18:12.106Z,47.70
2019-03-23T06:20:40.550Z,46.30
2019-03-23T06:23:08.897Z,39.40
2019-03-23T06:25:37.310Z,37.40
2019-03-23T06:28:05.722Z,39.90
2019-03-23T06:30:34.069Z,37.70
2019-03-23T06:33:02.453Z,33.80
2019-03-23T06:35:30.851Z,30.10
2019-03-23T06:37:59.236Z,28.30
2019-03-23T06:40:27.635Z,28.60
2019-03-23T06:42:59.853Z,29.60
2019-03-23T06:45:26.059Z,27.40
2019-03-23T06:47:54.436Z,27.80
2019-03-23T06:50:22.845Z,27.70
2019-03-23T06:52:51.230Z,27.60
2019-03-23T06:55:19.630Z,28.10
2019-03-23T06:57:48.010Z,25.30
2019-03-23T07:00:16.904Z,24.20
2019-03-23T07:02:45.297Z,22.50
2019-03-23T07:05:13.713Z,22.00
2019-03-23T07:07:42.100Z,21.60
2019-03-23T07:10:12.031Z,21.10
2019-03-23T07:12:40.399Z,20.30
2019-03-23T07:15:19.946Z,19.60
2019-03-23T07:17:41.749Z,22.40
2019-03-23T07:20:12.077Z,22.70
2019-03-23T07:22:40.462Z,21.00
2019-03-23T07:25:10.499Z,19.20
2019-03-23T07:27:38.885Z,18.40
2019-03-23T07:30:12.408Z,18.30
2019-03-23T07:32:40.785Z,18.50
2019-03-23T07:35:09.190Z,17.80
2019-03-23T07:37:37.577Z,17.40
2019-03-23T07:40:07.411Z,17.70
2019-03-23T07:42:35.788Z,16.80
2019-03-23T07:45:06.617Z,16.50
2019-03-23T07:47:34.937Z,16.10
2019-03-23T07:50:05.491Z,15.60
2019-03-23T07:52:33.880Z,18.10
2019-03-23T07:55:08.299Z,18.90
2019-03-23T07:57:36.679Z,19.60
2019-03-23T08:00:07.717Z,17.80
2019-03-23T08:02:36.030Z,17.50
2019-03-23T08:05:07.009Z,18.20
2019-03-23T08:07:35.386Z,17.60
2019-03-23T08:10:04.338Z,16.80
2019-03-23T08:12:32.659Z,17.90
2019-03-23T08:15:01.079Z,17.50
2019-03-23T08:17:29.454Z,19.30
2019-03-23T08:19:57.861Z,18.10
2019-03-23T08:22:26.254Z,19.80
2019-03-23T08:24:54.605Z,19.60
2019-03-23T08:27:22.969Z,19.50
2019-03-23T08:29:51.370Z,19.80
2019-03-23T08:32:19.763Z,21.40
2019-03-23T08:34:48.180Z,20.80
2019-03-23T08:37:16.557Z,24.20
2019-03-23T08:39:48.686Z,20.40
2019-03-23T08:42:15.102Z,20.30
2019-03-23T08:44:43.465Z,20.80
2019-03-23T08:47:11.837Z,18.90
2019-03-23T08:49:40.159Z,18.90
2019-03-23T08:52:08.562Z,20.50
2019-03-23T08:54:36.942Z,21.60
2019-03-23T08:57:05.360Z,20.60
2019-03-23T08:59:33.805Z,19.20
2019-03-23T09:02:02.314Z,18.90
2019-03-23T09:04:30.732Z,19.40
2019-03-23T09:06:59.135Z,22.00
2019-03-23T09:09:27.522Z,20.90
2019-03-23T09:11:55.933Z,19.00
2019-03-23T09:14:24.333Z,19.00
2019-03-23T09:16:52.766Z,19.00
2019-03-23T09:19:21.228Z,19.90
2019-03-23T09:21:52.580Z,21.20
2019-03-23T09:24:20.978Z,20.20
2019-03-23T09:26:52.903Z,20.40
2019-03-23T09:29:21.334Z,21.60
2019-03-23T09:31:49.774Z,20.00
2019-03-23T09:34:18.172Z,20.10
2019-03-23T09:36:46.667Z,20.80
2019-03-23T09:39:15.235Z,19.70
2019-03-23T09:41:43.695Z,21.40
2019-03-23T09:44:12.142Z,22.50
2019-03-23T09:46:40.615Z,23.20
2019-03-23T09:49:09.030Z,24.00
2019-03-23T09:51:37.476Z,23.70
2019-03-23T09:54:06.740Z,23.40
2019-03-23T09:56:35.220Z,23.90
2019-03-23T09:59:03.701Z,24.50
2019-03-23T10:01:33.045Z,28.60
2019-03-23T10:04:01.440Z,24.10
2019-03-23T10:06:29.850Z,23.50
2019-03-23T10:08:58.230Z,22.70
2019-03-23T10:11:26.630Z,21.50
2019-03-23T10:13:55.009Z,22.10
2019-03-23T10:16:23.424Z,23.80
2019-03-23T10:18:51.802Z,24.60
2019-03-23T10:21:20.223Z,22.90
2019-03-23T10:23:48.608Z,24.20
2019-03-23T10:26:17.026Z,23.50
2019-03-23T10:28:45.417Z,24.80
2019-03-23T10:31:13.844Z,25.20
2019-03-23T10:33:42.226Z,25.40
2019-03-23T10:36:12.289Z,26.60
2019-03-23T10:38:40.724Z,40.80
2019-03-23T10:41:09.132Z,27.00
2019-03-23T10:43:39.059Z,27.90
2019-03-23T10:46:07.530Z,27.20
2019-03-23T10:48:35.912Z,28.70
2019-03-23T10:51:04.330Z,29.10
2019-03-23T10:53:32.711Z,28.70
2019-03-23T10:56:01.155Z,29.10
2019-03-23T10:58:29.550Z,30.20
2019-03-23T11:00:57.931Z,29.30
2019-03-23T11:03:26.358Z,28.10
2019-03-23T11:05:54.749Z,28.30
2019-03-23T11:08:23.169Z,29.10
2019-03-23T11:10:51.565Z,31.10
2019-03-23T11:13:19.942Z,29.10
2019-03-23T11:15:48.374Z,27.40
2019-03-23T11:18:16.709Z,28.20
2019-03-23T11:20:45.081Z,28.10
2019-03-23T11:23:13.531Z,28.40
2019-03-23T11:25:41.912Z,28.40
2019-03-23T11:28:10.342Z,28.20
2019-03-23T11:30:38.733Z,28.70
2019-03-23T11:33:07.131Z,36.70
2019-03-23T11:35:35.563Z,28.50
2019-03-23T11:38:03.959Z,28.90
2019-03-23T11:40:32.316Z,27.80
2019-03-23T11:43:00.720Z,27.80
2019-03-23T11:45:29.110Z,29.60
2019-03-23T11:47:57.501Z,27.00
2019-03-23T11:50:25.891Z,28.00
2019-03-23T11:52:54.313Z,27.00
2019-03-23T11:55:22.709Z,29.00
2019-03-23T11:57:51.156Z,27.70
2019-03-23T12:00:19.842Z,26.90
2019-03-23T12:02:48.349Z,28.70
2019-03-23T12:05:16.768Z,27.10
2019-03-23T12:07:45.240Z,27.20
2019-03-23T12:10:13.687Z,26.20
2019-03-23T12:13:04.593Z,29.70
2019-03-23T12:15:31.687Z,26.40
2019-03-23T12:18:00.121Z,34.00
2019-03-23T12:20:28.528Z,36.30
2019-03-23T12:22:56.914Z,26.90
2019-03-23T12:25:25.300Z,28.50
2019-03-23T12:27:53.718Z,27.70
2019-03-23T12:30:22.136Z,26.40
2019-03-23T12:36:29.017Z,27.00
2019-03-23T12:39:02.769Z,26.70
2019-03-23T12:41:34.127Z,28.60
2019-03-23T12:44:06.789Z,30.10
2019-03-23T12:46:47.711Z,27.40
2019-03-23T12:49:11.840Z,28.10
2019-03-23T12:51:41.440Z,27.40
2019-03-23T12:54:12.591Z,28.20
2019-03-23T12:56:46.198Z,28.20
2019-03-23T12:59:14.407Z,27.40
2019-03-23T13:01:43.013Z,28.60
2019-03-23T13:04:11.590Z,32.60
2019-03-23T13:06:40.071Z,28.90
2019-03-23T13:09:11.597Z,29.80
2019-03-23T13:11:42.076Z,30.70
2019-03-23T13:14:10.334Z,28.60
2019-03-23T13:16:38.804Z,27.90
2019-03-23T13:19:07.355Z,28.10
2019-03-23T13:21:35.877Z,27.70
2019-03-23T13:24:22.707Z,28.70
2019-03-23T13:26:52.295Z,29.00
2019-03-23T13:29:28.152Z,27.10
2019-03-23T13:31:58.105Z,25.80
2019-03-23T13:34:28.374Z,26.90
2019-03-23T13:37:12.798Z,27.00
2019-03-23T13:39:41.205Z,26.90
2019-03-23T13:42:09.714Z,28.20
2019-03-23T13:44:38.113Z,27.30
2019-03-23T13:47:06.545Z,28.30
2019-03-23T13:49:34.898Z,29.20
2019-03-23T13:52:08.974Z,25.50
2019-03-23T13:54:37.390Z,26.50
2019-03-23T13:57:05.779Z,27.80
2019-03-23T13:59:34.183Z,29.10
2019-03-23T14:02:02.563Z,28.90
2019-03-23T14:04:40.808Z,30.30
2019-03-23T14:07:09.213Z,29.60
2019-03-23T14:09:37.618Z,30.10
2019-03-23T14:12:06.047Z,29.80
2019-03-23T14:14:34.439Z,29.40
2019-03-23T14:17:02.857Z,31.10
2019-03-23T14:19:31.279Z,29.70
2019-03-23T14:21:59.711Z,29.80
2019-03-23T14:24:28.135Z,30.10
2019-03-23T14:26:56.523Z,29.30
2019-03-23T14:29:24.956Z,38.60
2019-03-23T14:31:53.377Z,31.80
2019-03-23T14:34:21.796Z,30.60
2019-03-23T14:36:50.204Z,30.60
2019-03-23T14:39:18.630Z,34.40
2019-03-23T14:41:47.013Z,50.60
2019-03-23T14:44:15.439Z,32.10
2019-03-23T14:46:43.827Z,32.50
2019-03-23T14:49:12.283Z,31.70
2019-03-23T14:51:40.699Z,30.70
2019-03-23T14:54:09.139Z,32.00
2019-03-23T14:56:37.530Z,31.90
2019-03-23T14:59:05.957Z,30.50
2019-03-23T15:01:34.351Z,31.10
2019-03-23T15:04:02.816Z,32.50
2019-03-23T15:06:31.341Z,32.30
2019-03-23T15:08:59.753Z,33.00
2019-03-23T15:11:28.139Z,30.10
2019-03-23T15:13:56.599Z,31.90
2019-03-23T15:16:24.994Z,32.70
2019-03-23T15:18:53.433Z,34.00
2019-03-23T15:21:21.822Z,31.70
2019-03-23T15:23:50.347Z,31.90
2019-03-23T15:26:18.859Z,32.80
2019-03-23T15:28:47.306Z,31.70
2019-03-23T15:31:15.720Z,34.50
2019-03-23T15:33:44.130Z,34.10
2019-03-23T15:36:12.551Z,33.10
2019-03-23T15:38:40.950Z,34.20
2019-03-23T15:41:09.346Z,33.70
2019-03-23T15:43:37.773Z,34.90
2019-03-23T15:46:06.168Z,33.80
2019-03-23T15:48:34.557Z,34.40
2019-03-23T15:51:02.895Z,34.90
2019-03-23T15:53:31.270Z,33.00
2019-03-23T15:55:59.686Z,33.80
2019-03-23T15:58:28.011Z,35.10
2019-03-23T16:00:56.414Z,33.30
2019-03-23T16:03:24.805Z,32.50
2019-03-23T16:05:53.249Z,33.70
2019-03-23T16:08:21.635Z,33.10
2019-03-23T16:10:50.118Z,32.50
2019-03-23T16:13:18.584Z,32.40
2019-03-23T16:15:46.982Z,34.00
2019-03-23T16:18:15.358Z,34.60
2019-03-23T16:20:43.767Z,34.10
2019-03-23T16:23:12.156Z,35.50
2019-03-23T16:25:40.554Z,35.20
2019-03-23T16:28:08.928Z,35.10
2019-03-23T16:30:37.547Z,35.60
2019-03-23T16:33:06.023Z,36.80
2019-03-23T16:35:34.493Z,36.30
2019-03-23T16:38:02.929Z,36.40
2019-03-23T16:40:31.414Z,37.10
2019-03-23T16:42:59.861Z,38.20
2019-03-23T16:45:28.352Z,37.00
2019-03-23T16:47:56.798Z,38.20
2019-03-23T16:50:25.288Z,38.80
2019-03-23T16:52:53.764Z,40.70
2019-03-23T16:55:22.232Z,39.20
2019-03-23T16:57:50.656Z,39.40
2019-03-23T17:00:22.377Z,40.30
2019-03-23T17:02:50.817Z,42.00
2019-03-23T17:05:19.199Z,40.50
2019-03-23T17:07:47.586Z,41.60
2019-03-23T17:10:15.994Z,42.10
2019-03-23T17:12:44.384Z,44.20
2019-03-23T17:15:12.793Z,43.10
2019-03-23T17:17:41.168Z,42.30
2019-03-23T17:20:09.586Z,44.30
2019-03-23T17:22:38.008Z,43.90
2019-03-23T17:25:06.452Z,43.30
2019-03-23T17:27:34.846Z,43.30
2019-03-23T17:30:04.170Z,43.60
2019-03-23T17:32:32.603Z,44.40
2019-03-23T17:35:00.981Z,44.90
2019-03-23T17:37:29.394Z,45.00
2019-03-23T17:39:57.790Z,45.60
2019-03-23T17:42:26.196Z,46.00
2019-03-23T17:44:54.680Z,46.70
2019-03-23T17:47:23.082Z,46.80
2019-03-23T17:49:51.461Z,47.40
2019-03-23T17:52:19.866Z,48.10
2019-03-23T17:54:48.257Z,48.50
2019-03-23T17:57:16.827Z,49.50
2019-03-23T17:59:45.218Z,50.00
2019-03-23T18:02:13.666Z,49.50
2019-03-23T18:04:42.046Z,49.70
2019-03-23T18:07:10.455Z,50.20
2019-03-23T18:09:38.841Z,50.00
2019-03-23T18:12:07.249Z,50.40
2019-03-23T18:14:35.635Z,51.10
2019-03-23T18:17:04.114Z,51.40
2019-03-23T18:19:32.543Z,51.40
2019-03-23T18:22:01.030Z,51.30
2019-03-23T18:24:29.485Z,52.30
2019-03-23T18:26:57.929Z,52.20
2019-03-23T18:29:26.386Z,51.90
2019-03-23T18:31:54.860Z,54.00
2019-03-23T18:34:23.231Z,54.50
2019-03-23T18:36:51.655Z,54.60
2019-03-23T19:04:22.527Z,60.30
2019-03-23T19:06:51.282Z,61.30
2019-03-23T19:09:21.073Z,63.00
2019-03-23T19:11:49.588Z,64.20
2019-03-23T19:14:18.075Z,65.10
2019-03-23T19:16:46.628Z,65.20
2019-03-23T19:19:17.072Z,65.70
2019-03-23T19:21:47.318Z,66.30
2019-03-23T19:24:15.902Z,66.50
2019-03-23T19:26:44.480Z,66.80
2019-03-23T19:29:13.004Z,67.60
2019-03-23T19:31:41.704Z,66.60
2019-03-23T19:34:11.326Z,67.30
2019-03-23T19:36:39.783Z,66.40
2019-03-23T19:39:08.540Z,65.60
2019-03-23T19:41:36.992Z,65.60
2019-03-23T19:44:05.494Z,66.70
2019-03-23T19:46:33.965Z,68.60
2019-03-23T19:49:02.575Z,68.90
2019-03-23T19:51:31.099Z,69.20
2019-03-23T19:53:59.743Z,69.60
2019-03-23T19:56:28.240Z,69.40
2019-03-23T19:58:56.778Z,71.10
2019-03-23T20:01:26.018Z,71.20
2019-03-23T20:03:54.598Z,71.10
2019-03-23T20:06:23.234Z,71.60
2019-03-23T20:08:51.784Z,72.00
2019-03-23T20:11:20.400Z,72.40
2019-03-23T20:13:58.289Z,72.20
2019-03-23T20:16:19.114Z,71.40
2019-03-23T20:18:49.310Z,72.80
2019-03-23T21:17:26.062Z,80.10
2019-03-23T21:51:09.494Z,78.20
2019-03-23T21:53:42.990Z,78.20
2019-03-23T21:56:12.586Z,79.50
2019-03-23T21:58:41.138Z,79.90
2019-03-23T22:01:16.706Z,80.20
2019-03-23T22:03:49.985Z,80.60
2019-03-23T22:06:17.292Z,80.50
2019-03-23T22:08:46.055Z,80.90
2019-03-23T22:11:16.648Z,81.00
2019-03-23T22:13:50.070Z,80.90
2019-03-23T22:16:22.842Z,82.10
2019-03-23T22:18:53.719Z,82.80
2019-03-23T22:21:25.646Z,82.80
2019-03-23T22:23:59.200Z,82.70
2019-03-23T22:26:27.991Z,82.50
2019-03-23T22:28:56.652Z,83.20
2019-03-23T22:31:28.747Z,84.70
2019-03-23T22:34:06.120Z,85.40
2019-03-23T22:36:34.926Z,86.20
2019-03-23T22:39:06.486Z,87.30
2019-03-23T22:41:39.236Z,88.00
2019-03-23T22:44:05.620Z,89.20
2019-03-23T22:46:37.574Z,89.80
2019-03-23T22:49:08.443Z,89.80
2019-03-23T22:51:42.273Z,90.00
2019-03-23T22:54:12.646Z,89.50
2019-03-23T22:56:44.136Z,89.20
2019-03-23T22:59:16.446Z,89.10
2019-03-23T23:01:45.812Z,89.60
2019-03-23T23:04:17.810Z,89.60
2019-03-23T23:06:54.860Z,89.20
2019-03-23T23:09:28.979Z,89.50
2019-03-23T23:12:01.459Z,90.00
2019-03-23T23:14:33.284Z,90.00
2019-03-23T23:17:04.483Z,90.10
2019-03-23T23:19:34.166Z,89.90
2019-03-23T23:22:05.520Z,89.80
2019-03-23T23:24:38.075Z,89.70
2019-03-23T23:27:11.181Z,89.60
2019-03-23T23:29:42.906Z,90.00
2019-03-23T23:32:12.683Z,90.00
2019-03-23T23:34:42.511Z,90.30
2019-03-23T23:37:12.584Z,90.40
2019-03-23T23:39:41.337Z,91.30
2019-03-23T23:42:11.748Z,91.30
2019-03-23T23:44:40.499Z,91.00
2019-03-23T23:47:10.987Z,91.30
2019-03-23T23:49:42.778Z,91.50
2019-03-23T23:52:12.438Z,91.60
2019-03-23T23:54:42.842Z,91.60
2019-03-23T23:57:11.677Z,91.10
2019-03-23T23:59:45.263Z,91.20
